Time;durP1;ratioP1;P1;durP2;ratioP2;P2;SDS_P1;SDS_P2;PMS_P1;PMS_P2;Temp;Humidity;BMP_temperature;BMP_pressure;BME280_temperature;BME280_humidity;BME280_pressure;Samples;Min_cycle;Max_cycle;Signal;HPM_P1;HPM_P2
2022/01/26 00:00:42;;;;;;;;;;;14.10;55.60;;;;;;5094404;28;19973;-71
2022/01/26 00:06:00;;;;;;;;;;;14.10;55.60;;;;;;5093788;28;19921;-71
2022/01/26 00:08:26;;;;;;;;;;;14.20;55.70;;;;;;5094338;28;19977;-71
2022/01/26 00:10:54;;;;;;;;;;;14.20;55.60;;;;;;5093167;28;20018;-71
2022/01/26 00:13:21;;;;;;;;;;;14.20;55.60;;;;;;5109988;28;20019;-70
2022/01/26 00:15:47;;;;;;;;;;;14.20;55.60;;;;;;5092618;28;19924;-71
2022/01/26 00:18:15;;;;;;;;;;;14.20;55.50;;;;;;5094230;28;20371;-71
2022/01/26 00:20:49;;;;;;;;;;;14.20;55.50;;;;;;5109532;28;20300;-71
2022/01/26 00:23:35;;;;;;;;;;;14.20;55.50;;;;;;5114393;28;19927;-71
2022/01/26 00:26:09;;;;;;;;;;;14.20;55.50;;;;;;5113057;28;19924;-71
2022/01/26 00:28:46;;;;;;;;;;;14.20;55.40;;;;;;5113973;28;20458;-70
2022/01/26 00:39:25;;;;;;;;;;;14.30;55.40;;;;;;5112927;28;19920;-71
2022/01/26 00:41:57;;;;;;;;;;;14.30;55.40;;;;;;5113740;28;19935;-71
2022/01/26 00:44:30;;;;;;;;;;;14.30;55.40;;;;;;5113944;28;19931;-71
2022/01/26 00:46:58;;;;;;;;;;;14.30;55.40;;;;;;5113567;28;19923;-71
2022/01/26 00:49:25;;;;;;;;;;;14.30;55.40;;;;;;5112755;28;20407;-71
2022/01/26 00:51:52;;;;;;;;;;;14.30;55.40;;;;;;5113778;28;20116;-71
2022/01/26 00:54:19;;;;;;;;;;;14.30;55.40;;;;;;5113504;28;19985;-70
2022/01/26 00:56:45;;;;;;;;;;;14.40;55.40;;;;;;5113450;28;19934;-70
2022/01/26 00:59:13;;;;;;;;;;;14.40;55.30;;;;;;5112622;28;20003;-71
2022/01/26 01:01:40;;;;;;;;;;;14.40;55.30;;;;;;5112617;28;19927;-70
2022/01/26 01:04:06;;;;;;;;;;;14.40;55.40;;;;;;5113200;28;20018;-70
2022/01/26 01:06:40;;;;;;;;;;;14.40;55.30;;;;;;5111907;28;20369;-71
2022/01/26 01:09:07;;;;;;;;;;;14.40;55.30;;;;;;5113704;28;19943;-71
2022/01/26 01:11:33;;;;;;;;;;;14.30;55.20;;;;;;5113207;28;19930;-70
2022/01/26 01:14:00;;;;;;;;;;;14.40;55.30;;;;;;5112310;28;20007;-71
2022/01/26 01:16:28;;;;;;;;;;;14.40;55.20;;;;;;5111867;28;19963;-70
2022/01/26 01:19:02;;;;;;;;;;;14.40;55.30;;;;;;5110303;28;19934;-70
2022/01/26 01:24:50;;;;;;;;;;;14.40;55.20;;;;;;5091596;28;19963;-71
2022/01/26 01:27:45;;;;;;;;;;;14.40;55.20;;;;;;5091346;28;20350;-71
2022/01/26 01:30:25;;;;;;;;;;;14.40;55.20;;;;;;5091622;28;19956;-70
2022/01/26 01:33:03;;;;;;;;;;;14.40;55.20;;;;;;5091304;28;19924;-71
2022/01/26 01:35:31;;;;;;;;;;;14.40;55.20;;;;;;5091390;28;20400;-70
2022/01/26 01:38:06;;;;;;;;;;;14.40;55.20;;;;;;5091467;28;19960;-70
2022/01/26 01:40:33;;;;;;;;;;;14.40;55.20;;;;;;5091618;28;19924;-71
2022/01/26 01:43:01;;;;;;;;;;;14.40;55.10;;;;;;5090719;28;21564;-70
2022/01/26 01:45:34;;;;;;;;;;;14.40;55.10;;;;;;5091104;28;20023;-70
2022/01/26 01:48:02;;;;;;;;;;;14.40;55.20;;;;;;5091180;28;19924;-71
2022/01/26 01:50:29;;;;;;;;;;;14.40;55.20;;;;;;5092353;28;20358;-71
2022/01/26 01:53:01;;;;;;;;;;;14.40;55.20;;;;;;5091276;28;20011;-71
2022/01/26 01:55:29;;;;;;;;;;;14.40;55.20;;;;;;5092510;28;19934;-70
2022/01/26 01:57:56;;;;;;;;;;;14.40;55.10;;;;;;5091524;28;19932;-71
2022/01/26 02:00:22;;;;;;;;;;;14.40;55.20;;;;;;5090999;28;20021;-70
2022/01/26 02:02:49;;;;;;;;;;;14.40;55.10;;;;;;5091365;28;19930;-70
2022/01/26 02:05:17;;;;;;;;;;;14.40;55.20;;;;;;5092327;28;20484;-71
2022/01/26 02:07:43;;;;;;;;;;;14.40;55.20;;;;;;5090821;28;20008;-70
2022/01/26 02:10:10;;;;;;;;;;;14.40;55.10;;;;;;5091201;28;20015;-71
2022/01/26 02:12:41;;;;;;;;;;;14.40;55.20;;;;;;5092661;28;19924;-70
2022/01/26 02:15:13;;;;;;;;;;;14.40;55.10;;;;;;5091319;28;19924;-70
2022/01/26 02:18:07;;;;;;;;;;;14.40;55.10;;;;;;5091119;28;19924;-70
2022/01/26 02:51:14;;;;;;;;;;;14.40;55.10;;;;;;5115057;28;19920;-70
2022/01/26 02:53:57;;;;;;;;;;;14.40;55.10;;;;;;5114904;28;20356;-71
2022/01/26 02:56:30;;;;;;;;;;;14.40;55.10;;;;;;5115739;28;20346;-70
2022/01/26 02:59:30;;;;;;;;;;;14.40;55.00;;;;;;5114810;28;19924;-71
2022/01/26 03:02:00;;;;;;;;;;;14.40;55.10;;;;;;5114664;28;19924;-70
2022/01/26 03:04:34;;;;;;;;;;;14.40;55.00;;;;;;5115574;28;19924;-70
2022/01/26 03:07:06;;;;;;;;;;;14.40;55.10;;;;;;5114348;28;20457;-71
2022/01/26 03:09:39;;;;;;;;;;;14.40;55.10;;;;;;5115679;28;19984;-71
2022/01/26 03:12:07;;;;;;;;;;;14.40;55.10;;;;;;5115586;27;20026;-71
2022/01/26 03:14:44;;;;;;;;;;;14.40;55.10;;;;;;5115446;28;20018;-71
2022/01/26 03:17:20;;;;;;;;;;;14.40;55.00;;;;;;5115440;28;19980;-71
2022/01/26 03:19:50;;;;;;;;;;;14.40;55.10;;;;;;5104091;28;19928;-70
2022/01/26 03:28:11;;;;;;;;;;;14.40;55.10;;;;;;5095482;28;19931;-71
2022/01/26 03:28:17;;;;;;;;;;;14.40;55.10;;;;;;5094786;28;19924;-70
2022/01/26 03:31:31;;;;;;;;;;;14.40;55.10;;;;;;5093796;28;19990;-71
2022/01/26 03:34:00;;;;;;;;;;;14.40;55.00;;;;;;5093286;28;19947;-70
2022/01/26 03:36:30;;;;;;;;;;;14.40;55.10;;;;;;5093528;28;19920;-70
2022/01/26 03:39:01;;;;;;;;;;;14.40;55.10;;;;;;5094594;28;20015;-71
2022/01/26 03:41:38;;;;;;;;;;;14.40;55.10;;;;;;5093332;28;19928;-71
2022/01/26 03:44:05;;;;;;;;;;;14.40;55.10;;;;;;5094485;28;20434;-71
2022/01/26 03:46:31;;;;;;;;;;;14.40;55.10;;;;;;5093199;28;20018;-70
2022/01/26 03:48:58;;;;;;;;;;;14.40;55.10;;;;;;5094399;28;20471;-71
2022/01/26 03:51:24;;;;;;;;;;;14.40;55.10;;;;;;5093186;28;20018;-71
2022/01/26 03:53:51;;;;;;;;;;;14.40;55.10;;;;;;5093211;28;20007;-71
2022/01/26 03:56:18;;;;;;;;;;;14.40;55.10;;;;;;5092987;28;20014;-70
2022/01/26 03:58:46;;;;;;;;;;;14.40;55.10;;;;;;5094210;28;20014;-70
2022/01/26 04:01:12;;;;;;;;;;;14.40;55.00;;;;;;5094194;28;19975;-70
2022/01/26 04:03:39;;;;;;;;;;;14.40;55.00;;;;;;5093095;28;19969;-71
2022/01/26 04:06:05;;;;;;;;;;;14.40;55.10;;;;;;5092851;28;20444;-71
2022/01/26 04:08:34;;;;;;;;;;;14.40;55.10;;;;;;5092728;28;20007;-71
2022/01/26 04:11:12;;;;;;;;;;;14.40;55.10;;;;;;5093882;28;20014;-71
2022/01/26 04:13:39;;;;;;;;;;;14.40;55.10;;;;;;5094158;28;19964;-71
2022/01/26 04:16:08;;;;;;;;;;;14.40;55.00;;;;;;5092631;28;20003;-70
2022/01/26 04:18:37;;;;;;;;;;;14.40;55.00;;;;;;5093846;28;19924;-71
2022/01/26 04:21:11;;;;;;;;;;;14.40;55.00;;;;;;5092630;28;20023;-70
2022/01/26 04:23:44;;;;;;;;;;;14.40;55.10;;;;;;5092753;28;19974;-71
2022/01/26 04:26:13;;;;;;;;;;;14.40;55.10;;;;;;5092562;28;19924;-71
2022/01/26 04:28:44;;;;;;;;;;;14.40;55.10;;;;;;5092338;28;19924;-71
2022/01/26 04:31:12;;;;;;;;;;;14.40;55.00;;;;;;5092377;28;19925;-71
2022/01/26 04:33:39;;;;;;;;;;;14.40;55.00;;;;;;5092310;28;19956;-71
2022/01/26 04:36:10;;;;;;;;;;;14.40;55.00;;;;;;5093326;28;20359;-70
2022/01/26 04:38:41;;;;;;;;;;;14.40;55.00;;;;;;5092554;28;19935;-71
2022/01/26 04:41:23;;;;;;;;;;;14.40;55.00;;;;;;5092365;28;19959;-70
2022/01/26 04:43:54;;;;;;;;;;;14.40;55.00;;;;;;5091835;28;19928;-71
2022/01/26 04:46:24;;;;;;;;;;;14.40;55.00;;;;;;5092183;28;20384;-70
2022/01/26 04:48:50;;;;;;;;;;;14.40;55.00;;;;;;5091925;28;19950;-71
2022/01/26 04:51:17;;;;;;;;;;;14.40;55.00;;;;;;5092178;28;20391;-70
2022/01/26 04:53:44;;;;;;;;;;;14.40;55.00;;;;;;5093073;28;20015;-70
2022/01/26 04:56:10;;;;;;;;;;;14.40;55.00;;;;;;5091896;28;20018;-70
2022/01/26 04:58:37;;;;;;;;;;;14.40;55.00;;;;;;5091824;28;19924;-70
2022/01/26 05:01:03;;;;;;;;;;;14.40;55.00;;;;;;5093016;28;20019;-70
2022/01/26 05:03:31;;;;;;;;;;;14.40;54.90;;;;;;5091989;28;20448;-71
2022/01/26 05:05:58;;;;;;;;;;;14.40;54.90;;;;;;5091204;28;19955;-71
2022/01/26 05:08:25;;;;;;;;;;;14.40;54.90;;;;;;5092662;28;20017;-70
2022/01/26 05:10:51;;;;;;;;;;;14.40;55.50;;;;;;5092892;28;20015;-71
2022/01/26 05:13:18;;;;;;;;;;;14.40;54.90;;;;;;5091871;28;20015;-70
2022/01/26 05:15:44;;;;;;;;;;;14.40;54.90;;;;;;5091447;28;20003;-70
2022/01/26 05:18:11;;;;;;;;;;;14.40;54.90;;;;;;5091785;28;20004;-70
2022/01/26 05:20:39;;;;;;;;;;;14.40;54.80;;;;;;5092826;28;19946;-70
2022/01/26 05:23:08;;;;;;;;;;;14.40;54.90;;;;;;5092674;28;20032;-70
2022/01/26 05:25:34;;;;;;;;;;;14.40;54.90;;;;;;5091393;28;19930;-70
2022/01/26 05:28:01;;;;;;;;;;;14.40;54.90;;;;;;5091241;28;19925;-71
2022/01/26 05:30:28;;;;;;;;;;;14.40;54.90;;;;;;5092504;28;20007;-70
2022/01/26 05:32:54;;;;;;;;;;;14.40;54.80;;;;;;5091259;28;19924;-70
2022/01/26 05:35:21;;;;;;;;;;;14.40;54.80;;;;;;5091427;28;20011;-70
2022/01/26 05:37:49;;;;;;;;;;;14.40;54.80;;;;;;5091539;28;19924;-70
2022/01/26 05:40:16;;;;;;;;;;;14.40;54.80;;;;;;5092363;28;20038;-71
2022/01/26 05:42:42;;;;;;;;;;;14.40;54.90;;;;;;5091196;28;19931;-70
2022/01/26 05:45:19;;;;;;;;;;;14.40;54.80;;;;;;5090949;28;20019;-70
2022/01/26 05:47:46;;;;;;;;;;;14.40;54.80;;;;;;5091143;28;20397;-71
2022/01/26 05:50:12;;;;;;;;;;;14.40;54.80;;;;;;5091347;28;19924;-70
2022/01/26 05:52:39;;;;;;;;;;;14.40;54.80;;;;;;5091413;28;20003;-71
2022/01/26 05:55:08;;;;;;;;;;;14.40;54.80;;;;;;5091226;28;20480;-71
2022/01/26 05:57:34;;;;;;;;;;;14.40;54.80;;;;;;5090897;28;20015;-70
2022/01/26 06:00:01;;;;;;;;;;;14.40;54.80;;;;;;5092290;28;19924;-70
2022/01/26 06:02:29;;;;;;;;;;;14.40;54.80;;;;;;5092317;28;20319;-70
2022/01/26 06:04:56;;;;;;;;;;;14.40;54.80;;;;;;5091213;28;19928;-70
2022/01/26 06:07:22;;;;;;;;;;;14.40;54.80;;;;;;5091843;28;20307;-71
2022/01/26 06:09:49;;;;;;;;;;;14.40;54.80;;;;;;5092391;28;19930;-70
2022/01/26 06:12:17;;;;;;;;;;;14.40;54.80;;;;;;5092312;28;20011;-71
2022/01/26 06:14:44;;;;;;;;;;;14.40;54.70;;;;;;5090771;28;20368;-71
2022/01/26 06:17:10;;;;;;;;;;;14.40;54.70;;;;;;5092249;28;20006;-71
2022/01/26 06:19:37;;;;;;;;;;;14.40;54.80;;;;;;5100201;28;19978;-71
2022/01/26 06:22:03;;;;;;;;;;;14.40;54.70;;;;;;5095119;28;20452;-71
2022/01/26 06:24:30;;;;;;;;;;;14.40;54.70;;;;;;5094722;28;20010;-71
2022/01/26 06:26:57;;;;;;;;;;;14.40;54.80;;;;;;5094811;28;19975;-71
2022/01/26 06:29:25;;;;;;;;;;;14.40;54.70;;;;;;5094704;28;20412;-71
2022/01/26 06:31:51;;;;;;;;;;;14.40;54.80;;;;;;5095996;28;19924;-71
2022/01/26 06:34:18;;;;;;;;;;;14.40;54.70;;;;;;5094630;28;20007;-71
2022/01/26 06:36:44;;;;;;;;;;;14.40;54.70;;;;;;5095554;28;19973;-71
2022/01/26 06:39:11;;;;;;;;;;;14.40;54.70;;;;;;5097425;28;19928;-70
2022/01/26 06:41:39;;;;;;;;;;;14.40;54.70;;;;;;5094724;28;20381;-68
2022/01/26 06:44:16;;;;;;;;;;;14.40;54.70;;;;;;5095729;28;20373;-69
2022/01/26 06:46:53;;;;;;;;;;;14.40;54.70;;;;;;5102316;28;19924;-68
2022/01/26 06:49:29;;;;;;;;;;;14.40;54.70;;;;;;5102829;28;20023;-68
2022/01/26 06:51:56;;;;;;;;;;;14.40;54.70;;;;;;5103786;28;19948;-68
2022/01/26 06:54:22;;;;;;;;;;;14.50;55.10;;;;;;5105335;28;20364;-68
2022/01/26 06:56:49;;;;;;;;;;;14.50;54.70;;;;;;5103270;28;19923;-69
2022/01/26 06:59:16;;;;;;;;;;;14.50;54.80;;;;;;5104528;28;20020;-70
2022/01/26 07:01:44;;;;;;;;;;;14.50;54.70;;;;;;5098119;28;20034;-70
2022/01/26 07:04:10;;;;;;;;;;;14.50;54.70;;;;;;5105492;28;19928;-70
2022/01/26 07:06:37;;;;;;;;;;;14.60;54.70;;;;;;5103898;28;19927;-70
2022/01/26 07:09:04;;;;;;;;;;;14.60;54.70;;;;;;5104356;28;19927;-71
2022/01/26 07:11:30;;;;;;;;;;;14.60;54.70;;;;;;5105378;28;20437;-70
2022/01/26 07:13:59;;;;;;;;;;;14.60;54.70;;;;;;5103771;28;19927;-70
2022/01/26 07:21:55;;;;;;;;;;;14.60;54.60;;;;;;5105203;28;20304;-69
2022/01/26 07:24:21;;;;;;;;;;;14.60;54.60;;;;;;5112575;28;20022;-68
2022/01/26 07:26:52;;;;;;;;;;;14.70;54.60;;;;;;5114215;28;19927;-69
2022/01/26 07:29:22;;;;;;;;;;;14.70;54.60;;;;;;5113380;28;20429;-70
2022/01/26 07:31:49;;;;;;;;;;;14.60;54.40;;;;;;5096187;28;19924;-72
2022/01/26 07:34:19;;;;;;;;;;;14.70;54.60;;;;;;5093748;28;20007;-72
2022/01/26 07:36:47;;;;;;;;;;;14.70;54.50;;;;;;5093724;28;19924;-72
2022/01/26 07:39:17;;;;;;;;;;;14.70;54.50;;;;;;5093401;28;19924;-71
2022/01/26 07:41:44;;;;;;;;;;;14.70;54.50;;;;;;5093698;28;19928;-70
2022/01/26 07:44:10;;;;;;;;;;;14.70;54.40;;;;;;5094615;28;19968;-70
2022/01/26 07:46:37;;;;;;;;;;;14.70;54.50;;;;;;5093361;28;20007;-70
2022/01/26 07:49:03;;;;;;;;;;;14.70;54.50;;;;;;5093461;28;20015;-70
2022/01/26 07:51:31;;;;;;;;;;;14.70;54.40;;;;;;5093569;28;19924;-70
2022/01/26 07:53:58;;;;;;;;;;;14.70;54.50;;;;;;5094237;28;20018;-71
2022/01/26 07:56:26;;;;;;;;;;;14.70;54.50;;;;;;5093185;28;20003;-70
2022/01/26 07:58:52;;;;;;;;;;;14.70;54.50;;;;;;5094738;28;19994;-70
2022/01/26 08:01:19;;;;;;;;;;;14.70;55.10;;;;;;5094338;28;20031;-70
2022/01/26 08:03:46;;;;;;;;;;;14.70;54.50;;;;;;5102297;28;19967;-71
2022/01/26 08:06:15;;;;;;;;;;;14.70;54.50;;;;;;5102483;28;19924;-71
2022/01/26 08:08:43;;;;;;;;;;;14.70;54.60;;;;;;5100605;28;20304;-70
2022/01/26 08:11:10;;;;;;;;;;;14.70;54.60;;;;;;5100383;28;19941;-71
2022/01/26 08:13:36;;;;;;;;;;;14.70;54.60;;;;;;5102550;28;19997;-71
2022/01/26 08:16:03;;;;;;;;;;;14.70;54.60;;;;;;5101563;28;20011;-71
2022/01/26 08:18:30;;;;;;;;;;;14.60;54.60;;;;;;5108634;28;19967;-71
2022/01/26 08:21:03;;;;;;;;;;;14.60;54.60;;;;;;5094708;28;19932;-71
2022/01/26 08:23:30;;;;;;;;;;;14.70;54.70;;;;;;5093211;28;19931;-71
2022/01/26 08:25:58;;;;;;;;;;;14.60;54.70;;;;;;5092437;28;19928;-71
2022/01/26 08:28:29;;;;;;;;;;;14.60;54.70;;;;;;5093602;28;20451;-71
2022/01/26 08:30:56;;;;;;;;;;;14.60;54.60;;;;;;5096353;28;19942;-71
2022/01/26 08:33:22;;;;;;;;;;;14.60;54.70;;;;;;5102395;28;20413;-71
2022/01/26 08:35:49;;;;;;;;;;;14.60;54.60;;;;;;5106089;28;19961;-71
2022/01/26 08:38:15;;;;;;;;;;;14.70;54.70;;;;;;5104219;28;19927;-71
2022/01/26 08:40:43;;;;;;;;;;;14.70;54.70;;;;;;5095490;28;19974;-71
2022/01/26 08:43:11;;;;;;;;;;;14.60;54.70;;;;;;5093192;28;20292;-71
2022/01/26 08:45:38;;;;;;;;;;;14.70;54.70;;;;;;5091895;28;20010;-71
2022/01/26 08:48:04;;;;;;;;;;;14.60;54.70;;;;;;5092501;28;20317;-71
2022/01/26 08:50:31;;;;;;;;;;;14.70;54.70;;;;;;5092977;28;19998;-71
2022/01/26 08:52:58;;;;;;;;;;;14.60;54.70;;;;;;5103033;28;19928;-71
2022/01/26 08:55:24;;;;;;;;;;;14.70;54.70;;;;;;5091539;28;20002;-71
2022/01/26 08:57:51;;;;;;;;;;;14.70;54.70;;;;;;5092322;28;20006;-74
2022/01/26 09:00:19;;;;;;;;;;;14.60;54.70;;;;;;5101529;28;19927;-71
2022/01/26 09:02:46;;;;;;;;;;;14.70;54.70;;;;;;5110524;28;20018;-71
2022/01/26 09:05:13;;;;;;;;;;;14.60;54.60;;;;;;5101788;28;19985;-70
2022/01/26 09:07:43;;;;;;;;;;;14.60;54.70;;;;;;5100257;28;20006;-71
2022/01/26 09:10:10;;;;;;;;;;;14.70;54.70;;;;;;5102695;28;20010;-71
2022/01/26 09:12:41;;;;;;;;;;;14.70;54.70;;;;;;5104012;28;20359;-71
2022/01/26 09:15:09;;;;;;;;;;;14.60;54.70;;;;;;5102563;28;20296;-71
2022/01/26 09:17:38;;;;;;;;;;;14.70;54.70;;;;;;5093448;28;20400;-70
2022/01/26 09:20:05;;;;;;;;;;;14.70;54.60;;;;;;5099349;28;19924;-70
2022/01/26 09:22:31;;;;;;;;;;;14.60;54.60;;;;;;5097123;28;20284;-71
2022/01/26 09:24:58;;;;;;;;;;;14.70;54.70;;;;;;5091832;28;19928;-70
2022/01/26 09:27:24;;;;;;;;;;;14.70;54.70;;;;;;5092580;28;20341;-71
2022/01/26 09:29:51;;;;;;;;;;;14.70;54.70;;;;;;5091293;28;19967;-71
2022/01/26 09:32:18;;;;;;;;;;;14.70;54.70;;;;;;5091616;28;19928;-70
2022/01/26 09:34:46;;;;;;;;;;;14.70;54.60;;;;;;5092560;28;20347;-70
2022/01/26 09:37:13;;;;;;;;;;;14.70;54.60;;;;;;5093048;28;20006;-70
2022/01/26 09:39:39;;;;;;;;;;;14.70;54.60;;;;;;5105968;28;20014;-70
2022/01/26 09:42:06;;;;;;;;;;;14.70;54.60;;;;;;5111584;28;20006;-70
2022/01/26 09:44:33;;;;;;;;;;;14.70;54.60;;;;;;5111859;28;19928;-70
2022/01/26 09:47:00;;;;;;;;;;;14.70;54.60;;;;;;5113038;28;19924;-70
2022/01/26 09:49:31;;;;;;;;;;;14.70;54.60;;;;;;5111705;28;20019;-70
2022/01/26 09:52:01;;;;;;;;;;;14.70;54.60;;;;;;5112602;28;20292;-70
2022/01/26 09:54:30;;;;;;;;;;;14.70;54.60;;;;;;5112323;28;20488;-70
2022/01/26 09:57:01;;;;;;;;;;;14.70;55.10;;;;;;5102264;28;19928;-70
2022/01/26 09:59:27;;;;;;;;;;;14.80;54.60;;;;;;5099855;28;19924;-70
2022/01/26 10:01:54;;;;;;;;;;;14.80;54.60;;;;;;5101026;28;20014;-70
2022/01/26 10:04:21;;;;;;;;;;;14.80;54.60;;;;;;5101041;28;19927;-70
2022/01/26 10:06:50;;;;;;;;;;;14.80;54.50;;;;;;5102744;28;19927;-70
2022/01/26 10:17:35;;;;;;;;;;;14.80;54.50;;;;;;5113927;28;19921;-71
2022/01/26 10:20:03;;;;;;;;;;;14.80;54.50;;;;;;5103506;28;19966;-70
2022/01/26 10:22:30;;;;;;;;;;;14.80;54.40;;;;;;5111421;28;19928;-70
2022/01/26 10:25:06;;;;;;;;;;;14.80;54.50;;;;;;5106501;28;19946;-71
2022/01/26 10:27:36;;;;;;;;;;;14.80;54.40;;;;;;5101047;28;20014;-70
2022/01/26 10:30:05;;;;;;;;;;;14.80;54.50;;;;;;5099558;28;19924;-71
2022/01/26 10:32:32;;;;;;;;;;;14.80;54.40;;;;;;5106623;28;20026;-71
2022/01/26 10:35:00;;;;;;;;;;;14.80;54.40;;;;;;5097551;28;19985;-71
2022/01/26 10:37:27;;;;;;;;;;;14.80;54.40;;;;;;5090821;28;19924;-69
2022/01/26 10:39:56;;;;;;;;;;;14.90;54.50;;;;;;5097309;28;20027;-68
2022/01/26 10:42:26;;;;;;;;;;;14.80;55.00;;;;;;5096095;28;19978;-70
2022/01/26 10:45:03;;;;;;;;;;;14.90;54.40;;;;;;5106092;28;20304;-70
2022/01/26 10:47:32;;;;;;;;;;;14.90;54.40;;;;;;5106167;28;20348;-70
2022/01/26 10:50:18;;;;;;;;;;;14.90;54.40;;;;;;5092181;28;20146;-70
2022/01/26 10:52:54;;;;;;;;;;;14.90;54.40;;;;;;5091832;28;20011;-70
2022/01/26 10:55:20;;;;;;;;;;;14.90;54.40;;;;;;5090612;28;19979;-70
2022/01/26 10:57:48;;;;;;;;;;;14.90;54.40;;;;;;5091421;28;20015;-70
2022/01/26 11:00:15;;;;;;;;;;;14.90;54.40;;;;;;5091192;28;20424;-70
2022/01/26 11:02:47;;;;;;;;;;;14.90;54.40;;;;;;5090189;28;19924;-70
2022/01/26 11:05:14;;;;;;;;;;;14.90;54.40;;;;;;5092998;28;19978;-70
2022/01/26 11:07:41;;;;;;;;;;;16.10;55.10;;;;;;5093544;28;20011;-69
2022/01/26 11:10:08;;;;;;;;;;;14.90;54.30;;;;;;5095661;28;19985;-70
2022/01/26 11:12:35;;;;;;;;;;;14.90;54.40;;;;;;5103387;28;20085;-71
2022/01/26 11:15:06;;;;;;;;;;;14.90;54.40;;;;;;5115208;28;19923;-70
2022/01/26 11:17:35;;;;;;;;;;;14.90;54.40;;;;;;5114930;28;20006;-69
2022/01/26 11:20:03;;;;;;;;;;;14.90;54.60;;;;;;5114048;28;20018;-69
2022/01/26 11:22:31;;;;;;;;;;;14.90;54.50;;;;;;5112542;28;19927;-70
2022/01/26 11:25:07;;;;;;;;;;;15.00;54.50;;;;;;5115554;28;19924;-71
2022/01/26 11:27:34;;;;;;;;;;;15.00;54.60;;;;;;5112981;28;19924;-71
2022/01/26 11:30:05;;;;;;;;;;;15.00;54.70;;;;;;5114111;28;19930;-71
2022/01/26 11:32:37;;;;;;;;;;;15.00;54.70;;;;;;5115237;28;19924;-71
2022/01/26 11:35:04;;;;;;;;;;;15.00;54.80;;;;;;5115156;28;19924;-71
2022/01/26 11:37:38;;;;;;;;;;;15.00;54.90;;;;;;5114757;28;19923;-71
2022/01/26 11:45:34;;;;;;;;;;;15.10;56.10;;;;;;5113431;28;19924;-71
2022/01/26 11:48:03;;;;;;;;;;;15.20;56.30;;;;;;5114896;28;20351;-71
2022/01/26 11:50:30;;;;;;;;;;;15.20;56.30;;;;;;5113248;28;20026;-70
2022/01/26 11:53:00;;;;;;;;;;;15.20;56.10;;;;;;5112738;28;19932;-70
2022/01/26 11:55:31;;;;;;;;;;;15.30;56.10;;;;;;5108216;28;20329;-71
2022/01/26 11:58:06;;;;;;;;;;;15.30;56.10;;;;;;5093158;28;19934;-70
2022/01/26 12:00:43;;;;;;;;;;;15.30;56.00;;;;;;5094433;28;20007;-71
2022/01/26 12:03:21;;;;;;;;;;;15.30;55.90;;;;;;5108995;28;19962;-70
2022/01/26 12:05:49;;;;;;;;;;;15.30;55.80;;;;;;5094076;28;19971;-71
2022/01/26 12:08:16;;;;;;;;;;;15.30;55.80;;;;;;5106712;28;19931;-70
2022/01/26 12:10:44;;;;;;;;;;;15.30;55.70;;;;;;5111440;28;20341;-70
2022/01/26 12:13:12;;;;;;;;;;;15.40;55.80;;;;;;5114479;28;20014;-70
2022/01/26 12:15:43;;;;;;;;;;;15.40;55.70;;;;;;5105207;28;19931;-70
2022/01/26 12:18:22;;;;;;;;;;;15.40;55.70;;;;;;5091902;28;19928;-69
2022/01/26 12:32:21;;;;;;;;;;;15.40;55.50;;;;;;5118951;27;20385;-70
2022/01/26 12:34:57;;;;;;;;;;;15.40;55.40;;;;;;5104362;28;19967;-70
2022/01/26 12:37:38;;;;;;;;;;;15.40;55.40;;;;;;5103563;28;20029;-70
2022/01/26 12:43:05;;;;;;;;;;;15.40;55.40;;;;;;5055739;28;19927;-70
2022/01/26 12:45:32;;;;;;;;;;;15.40;55.40;;;;;;5103128;28;19959;-70
2022/01/26 12:48:01;;;;;;;;;;;15.40;55.40;;;;;;5103544;28;20011;-70
2022/01/26 12:50:28;;;;;;;;;;;15.40;55.30;;;;;;5104840;28;19971;-70
2022/01/26 12:52:56;;;;;;;;;;;15.40;55.30;;;;;;5113510;28;20010;-70
2022/01/26 12:55:24;;;;;;;;;;;15.40;55.30;;;;;;5112242;28;19927;-69
2022/01/26 12:57:50;;;;;;;;;;;15.40;55.30;;;;;;5112042;28;19928;-70
2022/01/26 13:00:17;;;;;;;;;;;15.40;55.20;;;;;;5111476;28;19923;-70
2022/01/26 13:02:44;;;;;;;;;;;15.40;55.20;;;;;;5105806;28;19930;-70
2022/01/26 13:05:11;;;;;;;;;;;15.40;55.20;;;;;;5092999;28;19928;-72
2022/01/26 13:07:37;;;;;;;;;;;15.40;55.30;;;;;;5091719;28;19928;-70
2022/01/26 13:10:14;;;;;;;;;;;15.40;55.30;;;;;;5091403;28;19924;-70
2022/01/26 13:12:41;;;;;;;;;;;15.40;55.20;;;;;;5091993;28;20444;-70
2022/01/26 13:15:14;;;;;;;;;;;15.40;55.20;;;;;;5092735;28;20324;-70
2022/01/26 13:17:46;;;;;;;;;;;15.40;55.20;;;;;;5091390;28;20006;-71
2022/01/26 13:20:27;;;;;;;;;;;15.40;55.20;;;;;;5106315;28;20407;-71
2022/01/26 13:23:05;;;;;;;;;;;15.40;55.20;;;;;;5112215;28;20394;-70
2022/01/26 13:25:44;;;;;;;;;;;15.40;55.20;;;;;;5113103;27;19924;-71
2022/01/26 13:28:30;;;;;;;;;;;15.40;55.20;;;;;;5112857;28;19946;-69
2022/01/26 13:36:44;;;;;;;;;;;15.40;55.20;;;;;;5032727;28;19921;-71
2022/01/26 13:39:26;;;;;;;;;;;15.40;55.30;;;;;;5094403;28;19934;-71
2022/01/26 13:42:15;;;;;;;;;;;15.40;55.20;;;;;;5110868;28;19924;-70
2022/01/26 13:44:57;;;;;;;;;;;15.40;55.20;;;;;;5111297;28;19927;-70
2022/01/26 13:47:44;;;;;;;;;;;15.40;55.20;;;;;;5111270;28;19923;-71
2022/01/26 13:50:21;;;;;;;;;;;15.40;55.20;;;;;;5110426;28;19935;-71
2022/01/26 13:52:53;;;;;;;;;;;15.40;55.20;;;;;;5110596;28;20395;-71
2022/01/26 14:01:01;;;;;;;;;;;15.40;55.20;;;;;;5111540;28;20389;-71
2022/01/26 14:03:30;;;;;;;;;;;15.40;55.20;;;;;;5095480;28;19967;-71
2022/01/26 14:05:57;;;;;;;;;;;15.40;55.20;;;;;;5102755;28;19932;-71
2022/01/26 14:08:23;;;;;;;;;;;15.40;55.20;;;;;;5093886;28;20432;-71
2022/01/26 14:10:50;;;;;;;;;;;15.40;55.20;;;;;;5090924;28;19934;-70
2022/01/26 14:13:21;;;;;;;;;;;15.40;55.20;;;;;;5091315;28;19982;-71
2022/01/26 14:15:50;;;;;;;;;;;15.40;55.20;;;;;;5091030;28;19924;-71
2022/01/26 14:24:11;;;;;;;;;;;15.30;55.10;;;;;;5094940;28;19924;-71
2022/01/26 14:26:38;;;;;;;;;;;15.30;55.10;;;;;;5111400;28;19924;-71
2022/01/26 14:29:15;;;;;;;;;;;15.40;55.20;;;;;;5111309;28;19923;-71
2022/01/26 14:31:59;;;;;;;;;;;15.30;55.20;;;;;;5104093;28;19973;-71
2022/01/26 14:51:10;;;;;;;;;;;15.30;55.20;;;;;;5098977;28;19924;-71
2022/01/26 15:10:56;;;;;;;;;;;15.10;55.40;;;;;;5114907;28;19965;-71
2022/01/26 15:35:22;;;;;;;;;;;15.00;55.70;;;;;;5055418;28;19924;-72
2022/01/26 15:40:47;;;;;;;;;;;14.90;55.60;;;;;;5115090;28;19927;-71
2022/01/26 15:43:36;;;;;;;;;;;15.00;55.70;;;;;;5114022;28;19923;-71
2022/01/26 15:49:06;;;;;;;;;;;14.90;55.60;;;;;;5113661;28;20003;-71
2022/01/26 15:57:27;;;;;;;;;;;14.90;55.70;;;;;;5113585;28;20404;-71
2022/01/26 16:05:46;;;;;;;;;;;14.90;55.70;;;;;;5114727;28;19984;-71
2022/01/26 16:08:27;;;;;;;;;;;14.90;55.80;;;;;;5112964;28;20396;-71
2022/01/26 16:16:56;;;;;;;;;;;14.90;55.70;;;;;;5114002;28;19973;-71
2022/01/26 16:28:26;;;;;;;;;;;14.90;55.70;;;;;;5093578;28;19963;-71
2022/01/26 16:38:56;;;;;;;;;;;15.00;56.00;;;;;;5091239;28;20286;-71
2022/01/26 16:52:26;;;;;;;;;;;15.10;56.00;;;;;;5092358;28;19924;-72
2022/01/26 16:53:18;;;;;;;;;;;15.30;56.30;;;;;;5091729;28;19924;-72
2022/01/26 18:15:31;;;;;;;;;;;15.30;55.40;;;;;;5053887;28;20425;-74
2022/01/26 18:18:12;;;;;;;;;;;15.30;55.30;;;;;;5100605;27;19927;-75
2022/01/26 18:26:25;;;;;;;;;;;15.30;55.40;;;;;;5100188;27;19919;-75
2022/01/26 18:50:54;;;;;;;;;;;15.40;55.30;;;;;;5126242;27;19928;-75
2022/01/26 18:53:21;;;;;;;;;;;15.40;55.30;;;;;;5125974;27;20010;-75
2022/01/26 18:55:48;;;;;;;;;;;15.40;55.30;;;;;;5126878;27;19971;-75
2022/01/26 18:58:15;;;;;;;;;;;15.40;55.30;;;;;;5102272;27;20400;-75
2022/01/26 19:00:44;;;;;;;;;;;15.40;55.30;;;;;;5095738;27;20024;-73
2022/01/26 19:03:11;;;;;;;;;;;15.40;55.30;;;;;;5097412;27;19955;-74
2022/01/26 19:05:37;;;;;;;;;;;15.40;55.30;;;;;;5116846;27;20002;-75
2022/01/26 19:08:04;;;;;;;;;;;15.40;55.30;;;;;;5128484;27;20022;-75
2022/01/26 19:10:32;;;;;;;;;;;15.40;55.30;;;;;;5118862;27;20413;-75
2022/01/26 19:12:59;;;;;;;;;;;15.40;55.20;;;;;;5118808;27;19924;-75
2022/01/26 19:15:29;;;;;;;;;;;15.50;55.30;;;;;;5129457;27;20439;-75
2022/01/26 19:18:00;;;;;;;;;;;15.50;55.30;;;;;;5122925;27;20391;-75
2022/01/26 19:26:00;;;;;;;;;;;15.50;55.20;;;;;;5123097;27;19923;-75
2022/01/26 19:28:31;;;;;;;;;;;15.50;55.20;;;;;;5109706;27;19927;-75
2022/01/26 19:44:47;;;;;;;;;;;15.60;55.20;;;;;;5117175;27;20043;-75
2022/01/26 19:50:43;;;;;;;;;;;15.60;55.20;;;;;;5123262;27;19977;-74
2022/01/26 19:53:02;;;;;;;;;;;15.60;55.10;;;;;;5121744;27;19920;-75
2022/01/26 19:55:28;;;;;;;;;;;15.60;55.10;;;;;;5110134;27;19999;-75
2022/01/26 19:57:56;;;;;;;;;;;15.60;55.10;;;;;;5106902;27;20014;-75
2022/01/26 20:00:23;;;;;;;;;;;15.60;55.10;;;;;;5124616;27;20374;-74
2022/01/26 20:02:50;;;;;;;;;;;15.60;55.10;;;;;;5125182;27;19977;-75
2022/01/26 20:05:17;;;;;;;;;;;15.60;55.10;;;;;;5122969;27;19930;-75